createdAt,value
2017-06-30T00:00:07.257Z,16
2017-06-30T00:01:09.797Z,16
2017-06-30T00:02:12.397Z,16
2017-06-30T00:03:15.072Z,16.1
2017-06-30T00:04:17.738Z,16.2
2017-06-30T00:05:20.296Z,16.3
2017-06-30T00:06:22.835Z,16.3
2017-06-30T00:07:25.365Z,16.3
2017-06-30T00:08:27.985Z,16.3
2017-06-30T00:09:30.525Z,16.2
2017-06-30T00:10:33.170Z,16.1
2017-06-30T00:11:35.774Z,16.2
2017-06-30T00:12:38.735Z,16.2
2017-06-30T00:13:41.329Z,16.1
2017-06-30T00:14:43.968Z,16.1
2017-06-30T00:15:46.680Z,16.2
2017-06-30T00:16:49.333Z,16.1
2017-06-30T00:17:51.947Z,16.2
2017-06-30T00:18:54.500Z,16.2
2017-06-30T00:19:57.195Z,16.3
2017-06-30T00:20:59.795Z,16.1
2017-06-30T00:22:02.397Z,16.3
2017-06-30T00:23:05.004Z,16.2
2017-06-30T00:24:07.658Z,16.3
2017-06-30T00:25:10.341Z,16
2017-06-30T00:26:12.953Z,16.1
2017-06-30T00:27:15.608Z,16.2
2017-06-30T00:28:18.222Z,16.1
2017-06-30T00:29:20.826Z,16.1
2017-06-30T00:30:23.413Z,16.1
2017-06-30T00:31:25.968Z,16.1
2017-06-30T00:32:28.554Z,16.2
2017-06-30T00:33:31.090Z,16.2
2017-06-30T00:34:33.672Z,16.3
2017-06-30T00:35:36.238Z,16.3
2017-06-30T00:36:38.955Z,16.1
2017-06-30T00:37:41.521Z,16.2
2017-06-30T00:38:44.161Z,16
2017-06-30T00:39:46.829Z,16.1
2017-06-30T00:40:49.379Z,16.1
2017-06-30T00:41:51.975Z,16.2
2017-06-30T00:42:54.500Z,16.1
2017-06-30T00:43:57.052Z,16.1
2017-06-30T00:44:59.676Z,16.1
2017-06-30T00:46:02.247Z,16.1
2017-06-30T00:47:04.844Z,16.1
2017-06-30T00:48:07.503Z,16.1
2017-06-30T00:49:10.095Z,16.2
2017-06-30T00:50:12.691Z,16.2
2017-06-30T00:51:15.312Z,16.2
2017-06-30T00:52:18.025Z,16.2
2017-06-30T00:53:20.622Z,16.2
2017-06-30T00:54:23.185Z,16.1
2017-06-30T00:55:26.553Z,16
2017-06-30T00:56:29.191Z,16
2017-06-30T00:57:31.897Z,16
2017-06-30T00:58:34.442Z,16.1
2017-06-30T00:59:37.160Z,16
2017-06-30T01:00:39.745Z,16
2017-06-30T01:01:42.336Z,16
2017-06-30T01:02:44.904Z,16
2017-06-30T01:03:47.574Z,16.1
2017-06-30T01:04:50.815Z,16
2017-06-30T01:05:53.409Z,15.9
2017-06-30T01:06:56.033Z,16
2017-06-30T01:07:58.956Z,15.9
2017-06-30T01:09:01.902Z,15.9
2017-06-30T01:10:04.577Z,15.9
2017-06-30T01:11:07.591Z,16
2017-06-30T01:12:10.843Z,16
2017-06-30T01:13:13.595Z,16
2017-06-30T01:14:16.229Z,16
2017-06-30T01:15:18.910Z,16
2017-06-30T01:16:21.460Z,16
2017-06-30T01:17:24.000Z,16
2017-06-30T01:18:26.659Z,15.9
2017-06-30T01:19:29.312Z,15.9
2017-06-30T01:20:31.929Z,16
2017-06-30T01:21:34.512Z,16
2017-06-30T01:22:37.175Z,16.1
2017-06-30T01:23:39.794Z,16.1
2017-06-30T01:24:42.918Z,16
2017-06-30T01:25:45.511Z,16
2017-06-30T01:26:48.161Z,16
2017-06-30T01:27:50.761Z,15.9
2017-06-30T01:28:53.358Z,15.9
2017-06-30T01:29:55.952Z,15.9
2017-06-30T01:30:58.601Z,16
2017-06-30T01:32:01.206Z,16
2017-06-30T01:33:03.784Z,15.8
2017-06-30T01:34:06.385Z,15.9
2017-06-30T01:35:09.017Z,15.9
2017-06-30T01:36:11.562Z,16
2017-06-30T01:37:14.152Z,15.9
2017-06-30T01:38:17.005Z,15.9
2017-06-30T01:39:19.584Z,15.8
2017-06-30T01:40:22.075Z,15.8
2017-06-30T01:41:24.701Z,15.7
2017-06-30T01:42:27.452Z,15.7
2017-06-30T01:43:30.029Z,15.8
2017-06-30T01:44:32.745Z,15.8
2017-06-30T01:45:35.428Z,15.7
2017-06-30T01:46:38.065Z,15.8
2017-06-30T01:47:40.787Z,15.8
2017-06-30T01:48:43.375Z,15.6
2017-06-30T01:49:45.954Z,15.6
2017-06-30T01:50:48.602Z,15.6
2017-06-30T01:51:51.180Z,15.7
2017-06-30T01:52:53.737Z,15.6
2017-06-30T01:53:56.315Z,15.5
2017-06-30T01:54:58.928Z,15.5
2017-06-30T01:56:01.562Z,15.6
2017-06-30T01:57:04.102Z,15.6
2017-06-30T01:58:06.761Z,15.7
2017-06-30T01:59:09.380Z,15.6
2017-06-30T02:00:12.009Z,15.5
2017-06-30T02:01:14.602Z,15.8
2017-06-30T02:02:17.199Z,15.8
2017-06-30T02:03:19.804Z,15.7
2017-06-30T02:04:22.361Z,15.5
2017-06-30T02:05:24.930Z,15.6
2017-06-30T02:06:27.558Z,15.7
2017-06-30T02:07:30.112Z,15.7
2017-06-30T02:08:32.708Z,15.8
2017-06-30T02:09:35.254Z,15.9
2017-06-30T02:10:37.843Z,15.9
2017-06-30T02:11:40.393Z,15.7
2017-06-30T02:12:42.991Z,15.6
2017-06-30T02:13:45.587Z,15.7
2017-06-30T02:14:48.120Z,15.7
2017-06-30T02:15:50.688Z,15.7
2017-06-30T02:16:53.234Z,15.6
2017-06-30T02:17:55.807Z,15.7
2017-06-30T02:18:58.456Z,15.7
2017-06-30T02:20:02.021Z,15.6
2017-06-30T02:21:04.643Z,15.5
2017-06-30T02:22:07.322Z,15.6
2017-06-30T02:23:09.924Z,15.5
2017-06-30T02:24:12.542Z,15.6
2017-06-30T02:25:15.134Z,15.5
2017-06-30T02:26:17.735Z,15.5
2017-06-30T02:27:20.276Z,15.6
2017-06-30T02:28:22.820Z,15.5
2017-06-30T02:29:25.423Z,15.5
2017-06-30T02:30:27.997Z,15.6
2017-06-30T02:31:31.135Z,15.6
2017-06-30T02:32:33.688Z,15.7
2017-06-30T02:33:36.292Z,15.7
2017-06-30T02:34:38.849Z,15.6
2017-06-30T02:35:41.435Z,15.7
2017-06-30T02:36:44.059Z,15.6
2017-06-30T02:37:46.661Z,15.6
2017-06-30T02:38:49.274Z,15.6
2017-06-30T02:39:51.814Z,15.6
2017-06-30T02:40:54.488Z,15.5
2017-06-30T02:41:57.091Z,15.4
2017-06-30T02:42:59.677Z,15.4
2017-06-30T02:44:02.579Z,15.3
2017-06-30T02:45:05.213Z,15.6
2017-06-30T02:46:07.881Z,15.6
2017-06-30T02:47:10.473Z,15.6
2017-06-30T02:48:13.026Z,15.5
2017-06-30T02:49:15.608Z,15.4
2017-06-30T02:50:18.220Z,15.5
2017-06-30T02:51:20.748Z,15.4
2017-06-30T02:52:23.260Z,15.4
2017-06-30T02:53:25.816Z,15.4
2017-06-30T02:54:28.424Z,15.3
2017-06-30T02:55:31.053Z,15.3
2017-06-30T02:56:33.560Z,15.4
2017-06-30T02:57:36.132Z,15.4
2017-06-30T02:58:38.798Z,15.4
2017-06-30T02:59:41.365Z,15.3
2017-06-30T03:00:43.909Z,15.4
2017-06-30T03:01:46.476Z,15.4
2017-06-30T03:02:49.143Z,15.4
2017-06-30T03:03:51.765Z,15.3
2017-06-30T03:04:54.291Z,15.3
2017-06-30T03:05:56.889Z,15.4
2017-06-30T03:06:59.510Z,15.4
2017-06-30T03:08:02.313Z,15.3
2017-06-30T03:09:04.911Z,15.2
2017-06-30T03:10:07.606Z,15.2
2017-06-30T03:11:10.328Z,15.3
2017-06-30T03:12:13.437Z,15.2
2017-06-30T03:13:16.041Z,15.3
2017-06-30T03:14:18.652Z,15.2
2017-06-30T03:15:21.186Z,15.3
2017-06-30T03:16:23.723Z,15.4
2017-06-30T03:17:26.238Z,15.3
2017-06-30T03:18:30.411Z,15.4
2017-06-30T03:19:33.718Z,15.3
2017-06-30T03:20:37.346Z,15.3
2017-06-30T03:21:39.974Z,15.2
2017-06-30T03:22:42.623Z,15.4
2017-06-30T03:23:47.768Z,15.2
2017-06-30T03:24:51.603Z,15.2
2017-06-30T03:25:54.120Z,15.3
2017-06-30T03:26:56.777Z,15.3
2017-06-30T03:27:59.388Z,15.2
2017-06-30T03:29:02.012Z,15.3
2017-06-30T03:30:04.669Z,15.3
2017-06-30T03:31:07.213Z,15.2
2017-06-30T03:32:10.188Z,15.3
2017-06-30T03:33:12.865Z,15.4
2017-06-30T03:34:15.432Z,15.2
2017-06-30T03:35:18.225Z,15.2
2017-06-30T03:36:20.875Z,15.3
2017-06-30T03:37:24.575Z,15.2
2017-06-30T03:38:27.204Z,15.3
2017-06-30T03:39:29.813Z,15.2
2017-06-30T03:40:32.430Z,15.2
2017-06-30T03:41:35.014Z,15.3
2017-06-30T03:42:37.682Z,15.3
2017-06-30T03:43:40.318Z,15.4
2017-06-30T03:44:43.054Z,15.2
2017-06-30T03:45:45.654Z,15.2
2017-06-30T03:46:48.284Z,15.1
2017-06-30T03:47:50.963Z,15.2
2017-06-30T03:48:53.628Z,15.2
2017-06-30T03:49:56.282Z,15.2
2017-06-30T03:50:58.970Z,15.2
2017-06-30T03:52:01.533Z,15.2
2017-06-30T03:53:04.085Z,15.3
2017-06-30T03:54:06.627Z,15.3
2017-06-30T03:55:09.186Z,15.3
2017-06-30T03:56:11.794Z,15.3
2017-06-30T03:57:14.502Z,15.4
2017-06-30T03:58:17.077Z,15.4
2017-06-30T03:59:19.862Z,15.5
2017-06-30T04:00:22.486Z,15.4
2017-06-30T04:01:25.199Z,15.4
2017-06-30T04:02:27.863Z,15.4
2017-06-30T04:03:30.538Z,15.4
2017-06-30T04:04:33.253Z,15.3
2017-06-30T04:05:36.191Z,15.4
2017-06-30T04:06:38.901Z,15.5
2017-06-30T04:07:41.625Z,15.4
2017-06-30T04:08:44.302Z,15.5
2017-06-30T04:09:47.129Z,15.5
2017-06-30T04:10:49.840Z,15.4
2017-06-30T04:11:52.537Z,15.3
2017-06-30T04:12:55.213Z,15.3
2017-06-30T04:13:57.908Z,15.4
2017-06-30T04:15:00.555Z,15.4
2017-06-30T04:16:03.141Z,15.4
2017-06-30T04:17:05.832Z,15.3
2017-06-30T04:18:08.438Z,15.3
2017-06-30T04:19:11.124Z,15.4
2017-06-30T04:20:13.702Z,15.4
2017-06-30T04:21:16.327Z,15.4
2017-06-30T04:22:19.098Z,15.5
2017-06-30T04:23:21.695Z,15.5
2017-06-30T04:24:24.318Z,15.4
2017-06-30T04:25:26.906Z,15.5
2017-06-30T04:26:29.664Z,15.4
2017-06-30T04:27:32.244Z,15.4
2017-06-30T04:28:34.823Z,15.3
2017-06-30T04:29:37.382Z,15.4
2017-06-30T04:30:39.934Z,15.4
2017-06-30T04:31:42.580Z,15.5
2017-06-30T04:32:45.216Z,15.6
2017-06-30T04:33:47.916Z,15.6
2017-06-30T04:34:50.493Z,15.4
2017-06-30T04:35:53.103Z,15.5
2017-06-30T04:36:55.716Z,15.5
2017-06-30T04:37:58.396Z,15.4
2017-06-30T04:39:00.986Z,15.7
2017-06-30T04:40:03.901Z,15.7
2017-06-30T04:41:06.433Z,15.6
2017-06-30T04:42:09.175Z,15.7
2017-06-30T04:43:11.783Z,15.7
2017-06-30T04:44:14.392Z,15.7
2017-06-30T04:45:17.020Z,15.7
2017-06-30T04:46:19.740Z,15.8
2017-06-30T04:47:22.431Z,15.9
2017-06-30T04:48:25.110Z,15.8
2017-06-30T04:49:27.872Z,15.7
2017-06-30T04:50:30.509Z,15.6
2017-06-30T04:51:33.106Z,15.6
2017-06-30T04:52:35.738Z,15.5
2017-06-30T04:53:38.425Z,15.7
2017-06-30T04:54:40.999Z,15.7
2017-06-30T04:55:43.608Z,15.6
2017-06-30T04:56:46.187Z,15.5
2017-06-30T04:57:48.804Z,15.5
2017-06-30T04:58:51.374Z,15.6
2017-06-30T04:59:53.997Z,15.5
2017-06-30T05:00:56.676Z,15.7
2017-06-30T05:01:59.303Z,15.5
2017-06-30T05:03:01.959Z,15.4
2017-06-30T05:04:04.533Z,15.5
2017-06-30T05:05:07.116Z,15.5
2017-06-30T05:06:09.747Z,15.4
2017-06-30T05:07:12.691Z,15.5
2017-06-30T05:08:15.286Z,15.6
2017-06-30T05:09:18.004Z,15.7
2017-06-30T05:10:20.650Z,15.8
2017-06-30T05:11:25.110Z,15.8
2017-06-30T05:12:28.608Z,15.7
2017-06-30T05:13:31.298Z,15.8
2017-06-30T05:14:33.925Z,15.7
2017-06-30T05:15:36.548Z,15.7
2017-06-30T05:16:39.347Z,15.7
2017-06-30T05:17:42.072Z,15.8
2017-06-30T05:18:44.828Z,15.8
2017-06-30T05:19:47.768Z,15.8
2017-06-30T05:20:50.663Z,15.7
2017-06-30T05:21:53.273Z,15.4
2017-06-30T05:22:55.919Z,15.6
2017-06-30T05:23:58.697Z,15.6
2017-06-30T05:25:01.535Z,15.6
2017-06-30T05:26:04.248Z,15.4
2017-06-30T05:27:06.897Z,15.9
2017-06-30T05:28:09.991Z,15.8
2017-06-30T05:29:12.652Z,15.6
2017-06-30T05:30:15.274Z,15.4
2017-06-30T05:31:17.995Z,15.5
2017-06-30T05:32:20.759Z,15.6
2017-06-30T05:33:23.393Z,15.5
2017-06-30T05:34:25.967Z,15.3
2017-06-30T05:35:28.804Z,15.1
2017-06-30T05:36:31.445Z,15.6
2017-06-30T05:37:34.142Z,15.7
2017-06-30T05:38:36.749Z,15.4
2017-06-30T05:39:39.470Z,15.5
2017-06-30T05:40:42.088Z,15.4
2017-06-30T05:41:44.902Z,15.4
2017-06-30T05:42:47.980Z,15.4
2017-06-30T05:43:52.306Z,15.5
2017-06-30T05:44:54.939Z,15.6
2017-06-30T05:45:57.501Z,15.5
2017-06-30T05:47:00.110Z,15.4
2017-06-30T05:48:02.772Z,15.5
2017-06-30T05:49:05.441Z,15.6
2017-06-30T05:50:08.156Z,15.7
2017-06-30T05:51:10.860Z,15.5
2017-06-30T05:52:13.598Z,15.5
2017-06-30T05:53:16.298Z,15.4
2017-06-30T05:54:19.363Z,15.5
2017-06-30T05:55:22.640Z,15.3
2017-06-30T05:56:25.493Z,15.2
2017-06-30T05:57:28.375Z,15.5
2017-06-30T05:58:31.338Z,15.6
2017-06-30T05:59:33.976Z,15.6
2017-06-30T06:00:36.687Z,15.5
2017-06-30T06:01:39.530Z,15.6
2017-06-30T06:02:42.326Z,15.8
2017-06-30T06:03:45.171Z,15.7
2017-06-30T06:04:47.767Z,15.6
2017-06-30T06:05:52.073Z,15.6
2017-06-30T06:06:54.726Z,15.8
2017-06-30T06:07:57.325Z,15.8
2017-06-30T06:09:00.081Z,15.9
2017-06-30T06:10:03.317Z,15.9
2017-06-30T06:11:06.092Z,15.8
2017-06-30T06:12:08.749Z,15.7
2017-06-30T06:13:11.464Z,15.9
2017-06-30T06:14:14.234Z,16
2017-06-30T06:15:16.859Z,16
2017-06-30T06:16:19.837Z,15.9
2017-06-30T06:17:22.477Z,16.1
2017-06-30T06:18:25.170Z,16.2
2017-06-30T06:19:28.321Z,16
2017-06-30T06:20:31.233Z,16
2017-06-30T06:21:36.090Z,16.1
2017-06-30T06:22:39.608Z,16
2017-06-30T06:23:42.474Z,15.9
2017-06-30T06:24:45.106Z,15.9
2017-06-30T06:25:47.756Z,15.9
2017-06-30T06:26:52.394Z,15.7
2017-06-30T06:27:55.220Z,15.6
2017-06-30T06:28:58.031Z,15.5
2017-06-30T06:30:01.293Z,15.8
2017-06-30T06:31:04.026Z,15.8
2017-06-30T06:32:07.172Z,15.8
2017-06-30T06:33:10.048Z,15.9
2017-06-30T06:34:12.640Z,15.8
2017-06-30T06:35:15.461Z,15.9
2017-06-30T06:36:18.185Z,15.8
2017-06-30T06:37:20.874Z,15.8
2017-06-30T06:38:23.888Z,15.5
2017-06-30T06:39:26.509Z,15.6
2017-06-30T06:40:29.165Z,15.5
2017-06-30T06:41:38.457Z,15.7
2017-06-30T06:42:41.158Z,15.7
2017-06-30T06:43:43.836Z,15.6
2017-06-30T06:44:46.553Z,15.7
2017-06-30T06:45:50.182Z,15.6
2017-06-30T06:46:53.060Z,15.5
2017-06-30T06:47:55.859Z,15.6
2017-06-30T06:48:58.613Z,15.5
2017-06-30T06:50:01.314Z,15.8
2017-06-30T06:51:04.000Z,15.7
2017-06-30T06:52:06.692Z,15.6
2017-06-30T06:53:09.482Z,15.7
2017-06-30T06:54:12.158Z,15.8
2017-06-30T06:55:14.750Z,15.9
2017-06-30T06:56:17.525Z,15.8
2017-06-30T06:57:20.500Z,16.1
2017-06-30T06:58:23.315Z,15.8
2017-06-30T06:59:26.088Z,16
2017-06-30T07:00:29.129Z,15.7
2017-06-30T07:01:31.807Z,16
2017-06-30T07:02:34.512Z,16
2017-06-30T07:03:37.518Z,16
2017-06-30T07:04:40.774Z,16
2017-06-30T07:05:43.433Z,16.1
2017-06-30T07:06:46.198Z,16
2017-06-30T07:07:49.013Z,16
2017-06-30T07:08:51.811Z,15.9
2017-06-30T07:09:54.578Z,16
2017-06-30T07:10:57.328Z,16
2017-06-30T07:12:00.301Z,16
2017-06-30T07:13:08.120Z,15.9
2017-06-30T07:14:11.253Z,16.2
2017-06-30T07:15:13.988Z,15.8
2017-06-30T07:16:16.822Z,16.2
2017-06-30T07:17:19.731Z,16.3
2017-06-30T07:18:23.213Z,16
2017-06-30T07:19:26.382Z,15.8
2017-06-30T07:20:29.370Z,16.4
2017-06-30T07:21:32.323Z,16.2
2017-06-30T07:22:35.565Z,16.4
2017-06-30T07:23:38.412Z,16.1
2017-06-30T07:24:41.156Z,16.3
2017-06-30T07:25:43.922Z,16
2017-06-30T07:26:46.781Z,16
2017-06-30T07:27:49.793Z,16
2017-06-30T07:28:52.428Z,16.2
2017-06-30T07:29:55.209Z,16.2
2017-06-30T07:30:58.105Z,15.9
2017-06-30T07:32:01.146Z,15.9
2017-06-30T07:33:03.926Z,16
2017-06-30T07:34:06.971Z,16
2017-06-30T07:35:09.880Z,16
2017-06-30T07:36:12.691Z,15.8
2017-06-30T07:37:15.411Z,15.8
2017-06-30T07:38:18.296Z,15.8
2017-06-30T07:39:21.895Z,15.4
2017-06-30T07:40:24.586Z,15.3
2017-06-30T07:41:28.432Z,15.5
2017-06-30T07:42:32.464Z,15.9
2017-06-30T07:43:35.931Z,16
2017-06-30T07:44:38.875Z,15.7
2017-06-30T07:45:41.629Z,15.9
2017-06-30T07:46:45.207Z,16
2017-06-30T07:47:48.314Z,16
2017-06-30T07:48:51.661Z,16.1
2017-06-30T07:49:54.409Z,15.8
2017-06-30T07:50:57.142Z,15.9
2017-06-30T07:51:59.915Z,15.8
2017-06-30T07:53:02.624Z,15.7
2017-06-30T07:54:05.406Z,15.6
2017-06-30T07:55:08.276Z,15.4
2017-06-30T07:56:11.314Z,15.7
2017-06-30T07:57:14.890Z,15.9
2017-06-30T07:58:23.606Z,15.9
2017-06-30T07:59:27.819Z,15.9
2017-06-30T08:00:30.887Z,15.9
2017-06-30T08:01:34.446Z,15.9
2017-06-30T08:02:37.288Z,15.9
2017-06-30T08:03:40.191Z,15.6
2017-06-30T08:04:42.982Z,15.7
2017-06-30T08:05:46.185Z,15.6
2017-06-30T08:06:49.093Z,15.3
2017-06-30T08:07:51.876Z,15.6
2017-06-30T08:08:54.712Z,15.6
2017-06-30T08:09:57.470Z,15.6
2017-06-30T08:11:00.270Z,15.8
2017-06-30T08:12:03.002Z,16
2017-06-30T08:13:05.756Z,16
2017-06-30T08:14:08.748Z,16
2017-06-30T08:15:11.758Z,15.9
2017-06-30T08:16:14.565Z,16.1
2017-06-30T08:17:23.117Z,15.8
2017-06-30T08:18:26.097Z,16
2017-06-30T08:19:29.032Z,16
2017-06-30T08:20:33.419Z,16.2
2017-06-30T08:21:42.397Z,15.9
2017-06-30T08:22:46.682Z,16.2
2017-06-30T08:23:49.874Z,16.1
2017-06-30T08:24:53.030Z,16.1
2017-06-30T08:25:56.813Z,16
2017-06-30T08:26:59.944Z,15.9
2017-06-30T08:28:03.399Z,15.9
2017-06-30T08:29:06.730Z,16.1
2017-06-30T08:30:09.525Z,16.2
2017-06-30T08:31:12.857Z,16.3
2017-06-30T08:32:16.436Z,16
2017-06-30T08:33:19.413Z,16.3
2017-06-30T08:34:22.233Z,16.1
2017-06-30T08:35:25.197Z,16
2017-06-30T08:36:28.007Z,16.2
2017-06-30T08:37:30.946Z,16.4
2017-06-30T08:38:33.593Z,16.5
2017-06-30T08:39:36.767Z,16.6
2017-06-30T08:40:39.632Z,16.5
2017-06-30T08:41:42.402Z,16.4
2017-06-30T08:42:45.087Z,16.4
2017-06-30T08:43:47.924Z,16.7
2017-06-30T08:44:50.890Z,16.6
2017-06-30T08:45:53.702Z,16.3
2017-06-30T08:46:57.181Z,16.6
2017-06-30T08:48:00.317Z,16.6
2017-06-30T08:49:03.196Z,16.7
2017-06-30T08:50:05.930Z,16.7
2017-06-30T08:51:09.908Z,16.4
2017-06-30T08:52:12.863Z,16.8
2017-06-30T08:53:18.865Z,16.9
2017-06-30T08:54:21.527Z,16.9
2017-06-30T08:55:24.418Z,16.9
2017-06-30T08:56:27.426Z,16.9
2017-06-30T08:57:30.314Z,17.1
2017-06-30T08:58:33.314Z,17.1
2017-06-30T08:59:36.118Z,17
2017-06-30T09:00:39.175Z,16.9
2017-06-30T09:01:42.342Z,17
2017-06-30T09:02:45.302Z,17.1
2017-06-30T09:03:48.007Z,17.3
2017-06-30T09:04:50.843Z,17.1
2017-06-30T09:05:53.992Z,17.2
2017-06-30T09:06:57.857Z,17.4
2017-06-30T09:08:00.901Z,17.1
2017-06-30T09:09:03.752Z,17.1
2017-06-30T09:10:06.522Z,17.5
2017-06-30T09:11:09.436Z,17.5
2017-06-30T09:12:12.233Z,17.7
2017-06-30T09:13:15.253Z,17.5
2017-06-30T09:14:18.028Z,17.7
2017-06-30T09:15:20.849Z,17.7
2017-06-30T09:16:23.878Z,17.7
2017-06-30T09:17:26.521Z,17.6
2017-06-30T09:18:29.585Z,17.6
2017-06-30T09:19:32.346Z,17.3
2017-06-30T09:20:35.068Z,17.2
2017-06-30T09:21:37.927Z,17.2
2017-06-30T09:22:41.000Z,17.1
2017-06-30T09:23:43.718Z,16.8
2017-06-30T09:24:46.682Z,17.1
2017-06-30T09:25:49.851Z,17.2
2017-06-30T09:26:52.761Z,17.3
2017-06-30T09:27:55.661Z,17
2017-06-30T09:28:58.389Z,17
2017-06-30T09:30:01.268Z,17.1
2017-06-30T09:31:04.269Z,17.3
2017-06-30T09:32:07.326Z,17.2
2017-06-30T09:33:10.136Z,17.2
2017-06-30T09:34:13.020Z,17.2
2017-06-30T09:35:15.734Z,17.3
2017-06-30T09:36:18.601Z,17.4
2017-06-30T09:37:21.614Z,17.4
2017-06-30T09:38:24.301Z,17
2017-06-30T09:39:32.050Z,17.3
2017-06-30T09:40:35.643Z,17
2017-06-30T09:41:38.496Z,17
2017-06-30T09:42:41.430Z,17.1
2017-06-30T09:43:44.775Z,17.1
2017-06-30T09:44:47.742Z,17.3
2017-06-30T09:45:50.609Z,17.2
2017-06-30T09:46:54.042Z,17.3
2017-06-30T09:47:59.381Z,17.2
2017-06-30T09:49:03.906Z,17.4
2017-06-30T09:50:06.700Z,17.4
2017-06-30T09:51:09.610Z,17.3
2017-06-30T09:52:13.678Z,17.3
2017-06-30T09:53:16.391Z,17.2
2017-06-30T09:54:19.519Z,17.1
2017-06-30T09:55:22.335Z,17
2017-06-30T09:56:25.207Z,17.1
2017-06-30T09:57:28.102Z,17.1
2017-06-30T09:58:31.169Z,17.2
2017-06-30T09:59:33.971Z,17.1
2017-06-30T10:00:36.794Z,17.1
2017-06-30T10:01:39.719Z,16.9
2017-06-30T10:02:43.768Z,17.2
2017-06-30T10:03:46.622Z,17.1
2017-06-30T10:04:49.564Z,17.3
2017-06-30T10:05:52.967Z,17.4
2017-06-30T10:06:56.549Z,17.4
2017-06-30T10:07:59.619Z,17.3
2017-06-30T10:09:02.554Z,17.4
2017-06-30T10:10:05.632Z,17.2
2017-06-30T10:11:08.380Z,17.4
2017-06-30T10:12:11.224Z,17.6
2017-06-30T10:13:14.071Z,17.9
2017-06-30T10:14:17.039Z,17.9
2017-06-30T10:15:20.028Z,18.1
2017-06-30T10:16:22.918Z,18.4
2017-06-30T10:17:25.681Z,18.8
2017-06-30T10:18:28.745Z,18.9
2017-06-30T10:19:31.726Z,19.4
2017-06-30T10:20:34.502Z,19.8
2017-06-30T10:21:37.241Z,19.8
2017-06-30T10:22:39.935Z,19.5
2017-06-30T10:23:42.569Z,19.6
2017-06-30T10:24:45.305Z,19.3
2017-06-30T10:25:48.012Z,19.5
2017-06-30T10:26:51.255Z,19.5
2017-06-30T10:27:53.971Z,19.1
2017-06-30T10:28:56.720Z,19
2017-06-30T10:29:59.524Z,18.6
2017-06-30T10:31:02.374Z,18.7
2017-06-30T10:32:05.024Z,18.8
2017-06-30T10:33:07.856Z,18.8
2017-06-30T10:34:11.116Z,18.8
2017-06-30T10:35:13.804Z,18.9
2017-06-30T10:36:16.807Z,19
2017-06-30T10:37:19.771Z,19.4
2017-06-30T10:38:22.791Z,19.6
2017-06-30T10:39:25.498Z,19.4
2017-06-30T10:40:28.203Z,19.3
2017-06-30T10:41:31.181Z,19.7
2017-06-30T10:42:33.999Z,19.2
2017-06-30T10:43:36.929Z,19.3
2017-06-30T10:44:40.909Z,19.3
2017-06-30T10:45:43.845Z,19.2
2017-06-30T10:46:46.647Z,19.4
2017-06-30T10:47:49.540Z,19.1
2017-06-30T10:48:52.336Z,19.2
2017-06-30T10:49:55.200Z,19.5
2017-06-30T10:50:58.169Z,19.5
2017-06-30T10:52:02.359Z,19.5
2017-06-30T10:53:05.644Z,19.5
2017-06-30T10:54:08.423Z,19
2017-06-30T10:55:11.423Z,19.5
2017-06-30T10:56:14.242Z,19.6
2017-06-30T10:57:17.048Z,19.3
2017-06-30T10:58:21.884Z,19.2
2017-06-30T10:59:24.824Z,19.3
2017-06-30T11:00:27.908Z,19.6
2017-06-30T11:01:32.270Z,19.8
2017-06-30T11:02:35.652Z,19.6
2017-06-30T11:03:38.946Z,19.9
2017-06-30T11:04:41.837Z,20.4
2017-06-30T11:05:44.781Z,21
2017-06-30T11:06:47.634Z,21
2017-06-30T11:07:51.474Z,21.5
2017-06-30T11:08:54.340Z,21.6
2017-06-30T11:09:57.878Z,21.6
2017-06-30T11:11:01.395Z,21.8
2017-06-30T11:12:06.158Z,21.8
2017-06-30T11:13:09.796Z,21.5
2017-06-30T11:14:12.765Z,21.6
2017-06-30T11:15:15.675Z,21.5
2017-06-30T11:16:18.571Z,21.9
2017-06-30T11:17:21.536Z,21
2017-06-30T11:18:24.478Z,20.6
2017-06-30T11:19:27.277Z,20.7
2017-06-30T11:20:30.285Z,21
2017-06-30T11:21:33.142Z,20.9
2017-06-30T11:22:36.068Z,20.8
2017-06-30T11:23:39.302Z,21
2017-06-30T11:24:42.135Z,20.8
2017-06-30T11:25:45.386Z,20.8
2017-06-30T11:26:48.168Z,20.3
2017-06-30T11:27:51.071Z,19.9
2017-06-30T11:28:53.927Z,19.9
2017-06-30T11:29:56.828Z,20
2017-06-30T11:30:59.854Z,19.9
2017-06-30T11:32:02.686Z,19.8
2017-06-30T11:33:05.493Z,19.7
2017-06-30T11:34:08.511Z,19.5
2017-06-30T11:35:11.546Z,19.5
2017-06-30T11:36:14.473Z,19.2
2017-06-30T11:37:17.300Z,19.2
2017-06-30T11:38:20.149Z,19.1
2017-06-30T11:39:23.022Z,18.8
2017-06-30T11:40:25.757Z,18.8
2017-06-30T11:41:28.427Z,18.3
2017-06-30T11:42:31.355Z,18.7
2017-06-30T11:43:34.265Z,18.7
2017-06-30T11:44:36.965Z,18.7
2017-06-30T11:45:39.997Z,18.6
2017-06-30T11:46:42.915Z,18.9
2017-06-30T11:47:45.905Z,18.9
2017-06-30T11:48:48.985Z,19
2017-06-30T11:49:51.886Z,19
2017-06-30T11:50:54.740Z,18.9
2017-06-30T11:51:57.514Z,19.2
2017-06-30T11:53:00.283Z,19.4
2017-06-30T11:54:03.266Z,19.4
2017-06-30T11:55:06.218Z,19.4
2017-06-30T11:56:09.015Z,19.5
2017-06-30T11:57:12.009Z,19.5
2017-06-30T11:58:14.694Z,19.8
2017-06-30T11:59:17.528Z,19.9
2017-06-30T12:00:20.980Z,20
2017-06-30T12:01:23.931Z,20
2017-06-30T12:02:26.757Z,20
2017-06-30T12:03:30.064Z,20.2
2017-06-30T12:04:32.889Z,19.9
2017-06-30T12:05:35.874Z,19.9
2017-06-30T12:06:39.269Z,20.1
2017-06-30T12:07:43.194Z,20
2017-06-30T12:08:45.901Z,20.2
2017-06-30T12:09:48.612Z,20.4
2017-06-30T12:10:52.091Z,20.5
2017-06-30T12:11:54.776Z,20.4
2017-06-30T12:12:57.454Z,20.6
2017-06-30T12:14:01.277Z,20.5
2017-06-30T12:15:04.167Z,20.9
2017-06-30T12:16:06.897Z,21
2017-06-30T12:17:09.784Z,20.8
2017-06-30T12:18:12.648Z,20.8
2017-06-30T12:19:15.349Z,20.7
2017-06-30T12:20:18.184Z,20.9
2017-06-30T12:21:21.250Z,20.6
2017-06-30T12:22:24.097Z,20.5
2017-06-30T12:23:26.902Z,20.2
2017-06-30T12:24:29.932Z,20.1
2017-06-30T12:25:32.824Z,19.9
2017-06-30T12:26:35.592Z,20
2017-06-30T12:27:38.874Z,20
2017-06-30T12:28:41.718Z,20
2017-06-30T12:29:44.621Z,19.6
2017-06-30T12:30:47.492Z,19.6
2017-06-30T12:31:51.400Z,19.8
2017-06-30T12:32:54.217Z,19.2
2017-06-30T12:33:57.302Z,19
2017-06-30T12:35:00.310Z,19.5
2017-06-30T12:36:03.047Z,19.5
2017-06-30T12:37:05.745Z,19.5
2017-06-30T12:38:08.600Z,19.1
2017-06-30T12:39:11.718Z,19.4
2017-06-30T12:40:14.365Z,19.5
2017-06-30T12:41:17.159Z,19.4
2017-06-30T12:42:20.084Z,18.9
2017-06-30T12:43:23.018Z,19.2
2017-06-30T12:44:25.780Z,19.1
2017-06-30T12:45:28.632Z,19.4
2017-06-30T12:46:31.476Z,19.4
2017-06-30T12:47:36.154Z,19.3
2017-06-30T12:48:41.712Z,19.6
2017-06-30T12:49:46.595Z,19.3
2017-06-30T12:50:49.305Z,19.4
2017-06-30T12:51:52.079Z,19.5
2017-06-30T12:52:54.970Z,19.6
2017-06-30T12:53:57.637Z,19.7
2017-06-30T12:55:00.690Z,19.7
2017-06-30T12:56:03.558Z,19.8
2017-06-30T12:57:06.560Z,19.9
2017-06-30T12:58:09.525Z,19.7
2017-06-30T12:59:12.450Z,19.7
2017-06-30T13:00:15.190Z,19.7
2017-06-30T13:01:18.010Z,19.8
2017-06-30T13:02:20.731Z,19.8
2017-06-30T13:03:23.559Z,19.6
2017-06-30T13:04:26.234Z,19.5
2017-06-30T13:05:29.218Z,19.7
2017-06-30T13:06:32.089Z,19.6
2017-06-30T13:07:34.889Z,19.4
2017-06-30T13:08:37.910Z,19.3
2017-06-30T13:09:40.854Z,19.4
2017-06-30T13:10:46.153Z,19.7
2017-06-30T13:11:49.409Z,19.8
2017-06-30T13:12:52.192Z,19.8
2017-06-30T13:13:55.095Z,20
2017-06-30T13:14:58.002Z,20.1
2017-06-30T13:16:00.849Z,19.8
2017-06-30T13:17:03.632Z,19.4
2017-06-30T13:18:07.455Z,19.5
2017-06-30T13:19:10.408Z,19.8
2017-06-30T13:20:13.240Z,19.5
2017-06-30T13:21:16.013Z,19.7
2017-06-30T13:22:18.718Z,19.8
2017-06-30T13:23:21.637Z,20
2017-06-30T13:24:24.333Z,20.3
2017-06-30T13:25:27.068Z,20.4
2017-06-30T13:26:29.809Z,20.6
2017-06-30T13:27:32.553Z,20.8
2017-06-30T13:28:35.344Z,21
2017-06-30T13:29:38.144Z,20.6
2017-06-30T13:30:41.056Z,21.1
2017-06-30T13:31:43.748Z,20.8
2017-06-30T13:32:46.601Z,21.4
2017-06-30T13:33:49.968Z,21.4
2017-06-30T13:34:53.005Z,21.7
2017-06-30T13:35:56.171Z,21.8
2017-06-30T13:36:59.154Z,21.6
2017-06-30T13:38:02.138Z,21.5
2017-06-30T13:39:04.957Z,21.7
2017-06-30T13:40:07.966Z,21.5
2017-06-30T13:41:10.889Z,21.5
2017-06-30T13:42:13.833Z,21.6
2017-06-30T13:43:17.495Z,21.7
2017-06-30T13:44:20.657Z,21.7
2017-06-30T13:45:23.479Z,21.9
2017-06-30T13:46:26.311Z,21.9
2017-06-30T13:47:31.456Z,21.9
2017-06-30T13:48:34.289Z,20.9
2017-06-30T13:49:37.057Z,20.8
2017-06-30T13:50:40.548Z,21
2017-06-30T13:51:43.503Z,20.6
2017-06-30T13:52:46.272Z,20.8
2017-06-30T13:53:48.960Z,20.9
2017-06-30T13:54:51.971Z,20.9
2017-06-30T13:55:54.847Z,20.7
2017-06-30T13:56:57.554Z,20.4
2017-06-30T13:58:00.512Z,20.3
2017-06-30T13:59:03.477Z,20.1
2017-06-30T14:00:06.621Z,20.1
2017-06-30T14:01:09.291Z,20
2017-06-30T14:02:12.063Z,20.1
2017-06-30T14:03:14.716Z,20